createdAt,value
2023-01-29T00:01:33.645Z,27.47
2023-01-29T00:04:05.440Z,29.87
2023-01-29T00:06:34.265Z,35.07
2023-01-29T00:09:03.089Z,35.67
2023-01-29T00:11:32.690Z,36.13
2023-01-29T00:14:01.615Z,35.27
2023-01-29T00:16:30.259Z,37.70
2023-01-29T00:19:02.045Z,35.23
2023-01-29T00:21:32.405Z,32.20
2023-01-29T00:24:02.374Z,28.50
2023-01-29T00:26:31.538Z,28.77
2023-01-29T00:29:02.259Z,26.30
2023-01-29T00:31:31.366Z,29.53
2023-01-29T00:34:01.180Z,32.13
2023-01-29T00:36:32.245Z,32.47
2023-01-29T00:39:03.666Z,37.10
2023-01-29T00:41:51.134Z,33.80
2023-01-29T00:44:37.621Z,35.47
2023-01-29T00:47:27.624Z,35.40
2023-01-29T00:49:56.242Z,35.57
2023-01-29T00:52:29.875Z,35.80
2023-01-29T00:54:59.735Z,33.97
2023-01-29T00:57:31.119Z,33.63
2023-01-29T01:00:00.636Z,29.60
2023-01-29T01:02:46.935Z,25.67
2023-01-29T01:05:19.142Z,22.70
2023-01-29T01:07:51.465Z,22.33
2023-01-29T01:10:22.757Z,22.53
2023-01-29T01:12:54.598Z,22.93
2023-01-29T01:15:23.943Z,28.40
2023-01-29T01:18:00.528Z,31.27
2023-01-29T01:20:31.158Z,34.43
2023-01-29T01:23:01.216Z,34.23
2023-01-29T01:25:30.130Z,33.23
2023-01-29T01:28:02.891Z,35.20
2023-01-29T01:30:33.292Z,35.10
2023-01-29T01:33:01.828Z,34.50
2023-01-29T01:35:30.678Z,33.43
2023-01-29T01:38:01.535Z,31.03
2023-01-29T01:40:30.162Z,29.17
2023-01-29T01:43:00.472Z,30.90
2023-01-29T01:45:31.142Z,30.47
2023-01-29T01:48:04.665Z,32.10
2023-01-29T01:50:37.337Z,31.17
2023-01-29T01:53:10.361Z,29.27
2023-01-29T01:55:42.167Z,28.67
2023-01-29T01:58:13.905Z,29.37
2023-01-29T02:00:43.929Z,26.90
2023-01-29T02:03:32.068Z,29.73
2023-01-29T02:06:19.527Z,26.87
2023-01-29T02:09:13.331Z,28.03
2023-01-29T02:11:42.232Z,26.27
2023-01-29T02:14:11.031Z,27.30
2023-01-29T02:16:39.792Z,25.87
2023-01-29T02:19:14.770Z,25.93
2023-01-29T02:22:10.389Z,26.70
2023-01-29T02:25:10.744Z,24.80
2023-01-29T02:28:28.373Z,24.67
2023-01-29T02:31:04.286Z,25.63
2023-01-29T02:33:43.146Z,26.10
2023-01-29T02:36:21.227Z,26.87
2023-01-29T02:38:55.565Z,27.80
2023-01-29T02:41:28.792Z,25.10
2023-01-29T02:44:06.681Z,27.13
2023-01-29T02:46:39.720Z,26.13
2023-01-29T02:49:17.966Z,28.63
2023-01-29T02:51:51.939Z,31.17
2023-01-29T02:54:25.061Z,30.80
2023-01-29T02:56:57.618Z,31.83
2023-01-29T02:59:33.132Z,34.23
2023-01-29T03:02:07.796Z,34.73
2023-01-29T03:04:43.363Z,33.73
2023-01-29T03:07:37.797Z,27.80
2023-01-29T03:10:13.526Z,25.03
2023-01-29T03:12:51.550Z,27.60
2023-01-29T03:15:27.396Z,26.87
2023-01-29T03:18:01.602Z,26.50
2023-01-29T03:20:35.349Z,29.57
2023-01-29T03:23:10.464Z,29.63
2023-01-29T03:26:00.184Z,28.13
2023-01-29T03:28:48.473Z,28.23
2023-01-29T03:31:37.579Z,25.77
2023-01-29T03:34:16.683Z,23.73
2023-01-29T03:36:55.899Z,25.30
2023-01-29T03:39:28.534Z,25.07
2023-01-29T03:42:02.080Z,24.13
2023-01-29T03:44:37.514Z,26.70
2023-01-29T03:47:22.313Z,23.97
2023-01-29T03:49:59.241Z,24.90
2023-01-29T03:52:35.144Z,22.90
2023-01-29T03:55:10.913Z,27.67
2023-01-29T03:57:45.667Z,26.73
2023-01-29T04:00:21.634Z,26.83
2023-01-29T04:02:58.394Z,29.43
2023-01-29T04:05:30.549Z,26.03
2023-01-29T04:08:06.315Z,26.23
2023-01-29T04:10:37.067Z,27.40
2023-01-29T04:13:09.065Z,26.37
2023-01-29T04:15:44.442Z,26.00
2023-01-29T04:18:14.548Z,21.90
2023-01-29T04:20:43.524Z,27.27
2023-01-29T04:23:25.261Z,25.57
2023-01-29T04:26:08.204Z,28.93
2023-01-29T04:28:50.249Z,31.00
2023-01-29T04:31:19.429Z,27.53
2023-01-29T04:34:02.336Z,26.57
2023-01-29T04:36:39.092Z,27.73
2023-01-29T04:39:17.577Z,27.27
2023-01-29T04:41:52.875Z,28.93
2023-01-29T04:44:28.268Z,29.50
2023-01-29T04:47:08.076Z,28.07
2023-01-29T04:49:47.164Z,27.50
2023-01-29T04:52:23.190Z,26.57
2023-01-29T04:55:02.766Z,27.97
2023-01-29T04:57:43.433Z,26.40
2023-01-29T05:00:18.556Z,35.13
2023-01-29T05:02:48.229Z,35.70
2023-01-29T05:05:21.201Z,47.53
2023-01-29T05:10:33.649Z,69.87
2023-01-29T05:13:05.252Z,66.57
2023-01-29T05:15:40.001Z,53.87
2023-01-29T05:18:19.095Z,47.20
2023-01-29T05:20:49.934Z,45.00
2023-01-29T05:23:19.560Z,44.27
2023-01-29T05:25:48.697Z,41.70
2023-01-29T05:28:16.946Z,34.43
2023-01-29T05:30:48.038Z,36.13
2023-01-29T05:33:18.351Z,37.33
2023-01-29T05:35:49.348Z,29.30
2023-01-29T05:38:18.457Z,34.53
2023-01-29T05:40:47.355Z,32.53
2023-01-29T05:43:18.686Z,28.13
2023-01-29T05:45:54.917Z,28.70
2023-01-29T05:48:24.129Z,30.43
2023-01-29T05:50:54.137Z,28.00
2023-01-29T05:53:22.720Z,30.03
2023-01-29T05:55:51.311Z,27.67
2023-01-29T05:58:19.941Z,28.00
2023-01-29T06:00:48.384Z,29.67
2023-01-29T06:03:17.033Z,28.87
2023-01-29T06:05:45.624Z,27.50
2023-01-29T06:08:15.600Z,27.00
2023-01-29T06:10:44.465Z,28.73
2023-01-29T06:13:12.912Z,30.87
2023-01-29T06:15:41.968Z,31.33
2023-01-29T06:18:10.505Z,30.57
2023-01-29T06:20:39.282Z,30.50
2023-01-29T06:23:07.869Z,29.37
2023-01-29T06:25:37.931Z,31.13
2023-01-29T06:28:07.075Z,28.00
2023-01-29T06:30:35.827Z,31.20
2023-01-29T06:33:04.602Z,30.23
2023-01-29T06:35:33.152Z,30.03
2023-01-29T06:38:02.319Z,30.47
2023-01-29T06:40:30.981Z,29.87
2023-01-29T06:43:03.805Z,42.63
2023-01-29T06:45:32.819Z,37.73
2023-01-29T06:48:01.742Z,50.57
2023-01-29T06:50:30.264Z,46.40
2023-01-29T06:53:00.228Z,39.93
2023-01-29T06:55:30.612Z,34.37
2023-01-29T06:58:01.095Z,34.23
2023-01-29T07:00:31.534Z,35.00
2023-01-29T07:03:00.138Z,35.17
2023-01-29T07:05:28.676Z,32.90
2023-01-29T07:07:57.740Z,35.70
2023-01-29T07:10:26.612Z,33.67
2023-01-29T07:12:55.148Z,32.90
2023-01-29T07:15:25.222Z,31.20
2023-01-29T07:18:01.721Z,32.53
2023-01-29T07:20:32.114Z,35.63
2023-01-29T07:23:01.049Z,34.30
2023-01-29T07:25:30.527Z,33.00
2023-01-29T07:28:02.475Z,36.67
2023-01-29T07:30:32.895Z,36.40
2023-01-29T07:33:07.344Z,34.87
2023-01-29T07:35:39.601Z,38.13
2023-01-29T07:38:09.428Z,33.23
2023-01-29T07:40:38.521Z,32.73
2023-01-29T07:43:08.733Z,32.27
2023-01-29T07:45:40.205Z,34.07
2023-01-29T07:48:11.743Z,31.73
2023-01-29T07:50:40.981Z,32.23
2023-01-29T07:53:13.615Z,33.37
2023-01-29T07:55:42.719Z,31.97
2023-01-29T07:58:11.384Z,31.10
2023-01-29T08:00:41.523Z,29.87
2023-01-29T08:03:14.179Z,28.30
2023-01-29T08:05:45.288Z,27.00
2023-01-29T08:08:14.008Z,29.07
2023-01-29T08:10:43.397Z,31.20
2023-01-29T08:13:12.513Z,31.87
2023-01-29T08:15:45.856Z,32.67
2023-01-29T08:18:14.889Z,31.40
2023-01-29T08:20:43.471Z,31.77
2023-01-29T08:23:15.458Z,31.70
2023-01-29T08:25:44.032Z,33.10
2023-01-29T08:28:14.625Z,30.37
2023-01-29T08:30:47.586Z,27.30
2023-01-29T08:33:19.458Z,30.17
2023-01-29T08:35:54.100Z,30.77
2023-01-29T08:38:23.286Z,30.40
2023-01-29T08:40:51.897Z,31.70
2023-01-29T08:43:20.732Z,31.63
2023-01-29T08:45:50.659Z,31.37
2023-01-29T08:48:19.278Z,31.33
2023-01-29T08:51:01.853Z,30.10
2023-01-29T08:53:30.594Z,30.53
2023-01-29T08:55:59.324Z,30.67
2023-01-29T08:58:27.862Z,30.80
2023-01-29T09:00:58.174Z,30.83
2023-01-29T09:03:26.743Z,28.43
2023-01-29T09:05:55.300Z,29.70
2023-01-29T09:08:24.353Z,28.53
2023-01-29T09:10:53.095Z,30.40
2023-01-29T09:13:21.790Z,30.27
2023-01-29T09:15:51.255Z,32.20
2023-01-29T09:18:22.222Z,34.60
2023-01-29T09:20:50.921Z,31.87
2023-01-29T09:23:19.465Z,31.90
2023-01-29T09:25:48.421Z,30.10
2023-01-29T09:28:18.462Z,30.57
2023-01-29T09:30:47.692Z,31.67
2023-01-29T09:33:17.403Z,32.23
2023-01-29T09:35:47.670Z,31.47
2023-01-29T09:38:17.800Z,34.83
2023-01-29T09:40:57.518Z,31.60
2023-01-29T09:43:32.096Z,32.53
2023-01-29T09:46:06.640Z,33.00
2023-01-29T09:48:37.384Z,33.27
2023-01-29T09:51:16.673Z,32.83
2023-01-29T09:53:55.987Z,33.50
2023-01-29T09:56:29.680Z,34.23
2023-01-29T09:59:01.385Z,34.87
2023-01-29T10:01:38.385Z,39.10
2023-01-29T10:04:53.488Z,37.63
2023-01-29T10:07:42.182Z,40.13
2023-01-29T10:10:31.928Z,35.60
2023-01-29T10:13:09.266Z,33.80
2023-01-29T10:15:51.752Z,33.67
2023-01-29T10:18:47.076Z,33.40
2023-01-29T10:21:28.992Z,31.93
2023-01-29T10:24:11.915Z,31.13
2023-01-29T10:26:42.881Z,32.30
2023-01-29T10:29:22.225Z,30.10
2023-01-29T10:31:56.934Z,28.93
2023-01-29T10:34:33.124Z,30.03
2023-01-29T10:37:03.479Z,29.97
2023-01-29T10:39:34.704Z,31.80
2023-01-29T10:42:16.827Z,29.00
2023-01-29T10:45:00.111Z,28.10
2023-01-29T10:47:57.553Z,31.53
2023-01-29T10:50:46.189Z,32.53
2023-01-29T10:53:37.591Z,32.50
2023-01-29T10:56:28.417Z,29.90
2023-01-29T10:59:01.232Z,29.93
2023-01-29T11:01:32.274Z,30.53
2023-01-29T11:04:04.367Z,31.20
2023-01-29T11:06:38.694Z,30.00
2023-01-29T11:09:23.814Z,29.87
2023-01-29T11:11:59.365Z,30.93
2023-01-29T11:14:31.527Z,29.57
2023-01-29T11:17:01.267Z,31.53
2023-01-29T11:19:41.366Z,28.50
2023-01-29T11:22:18.964Z,29.20
2023-01-29T11:24:49.159Z,28.80
2023-01-29T11:27:26.073Z,32.17
2023-01-29T11:29:57.942Z,31.83
2023-01-29T11:32:43.524Z,29.23
2023-01-29T11:35:28.984Z,30.70
2023-01-29T11:38:10.306Z,30.27
2023-01-29T11:40:43.413Z,30.97
2023-01-29T11:43:22.648Z,30.93
2023-01-29T11:45:54.293Z,29.57
2023-01-29T11:48:25.592Z,30.83
2023-01-29T11:50:58.126Z,30.60
2023-01-29T11:53:36.580Z,30.43
2023-01-29T11:56:17.002Z,31.50
2023-01-29T11:58:49.615Z,30.63
2023-01-29T12:01:24.101Z,29.27
2023-01-29T12:03:55.089Z,29.10
2023-01-29T12:06:26.477Z,31.10
2023-01-29T12:08:58.501Z,29.20
2023-01-29T12:11:34.396Z,30.03
2023-01-29T12:14:07.186Z,32.77
2023-01-29T12:16:41.455Z,30.37
2023-01-29T12:19:27.872Z,29.07
2023-01-29T12:22:03.951Z,28.73
2023-01-29T12:24:37.195Z,29.60
2023-01-29T12:27:13.786Z,29.93
2023-01-29T12:29:50.615Z,29.90
2023-01-29T12:32:31.475Z,31.03
2023-01-29T12:35:08.445Z,29.87
2023-01-29T12:37:47.001Z,29.87
2023-01-29T12:40:18.944Z,28.00
2023-01-29T12:42:51.886Z,29.67
2023-01-29T12:45:24.951Z,30.90
2023-01-29T12:47:57.542Z,31.43
2023-01-29T12:50:29.918Z,33.40
2023-01-29T12:53:02.318Z,29.90
2023-01-29T12:55:36.727Z,32.07
2023-01-29T12:58:11.931Z,31.43
2023-01-29T13:00:45.055Z,30.80
2023-01-29T13:03:29.760Z,29.80
2023-01-29T13:06:00.790Z,28.87
2023-01-29T13:08:33.677Z,31.00
2023-01-29T13:11:08.874Z,27.83
2023-01-29T13:13:53.935Z,29.03
2023-01-29T13:16:28.933Z,30.33
2023-01-29T13:19:00.922Z,32.50
2023-01-29T13:21:36.525Z,30.30
2023-01-29T13:24:14.619Z,29.83
2023-01-29T13:26:47.648Z,30.77
2023-01-29T13:29:27.413Z,28.37
2023-01-29T13:32:05.023Z,28.43
2023-01-29T13:34:37.238Z,30.83
2023-01-29T13:37:12.275Z,30.53
2023-01-29T13:39:49.033Z,28.90
2023-01-29T13:42:21.795Z,29.10
2023-01-29T13:44:52.561Z,27.77
2023-01-29T13:47:28.477Z,29.00
2023-01-29T13:50:03.030Z,29.00
2023-01-29T13:52:39.997Z,28.97
2023-01-29T13:55:22.029Z,28.97
2023-01-29T13:57:56.260Z,27.77
2023-01-29T14:00:51.986Z,27.50
2023-01-29T14:04:06.094Z,27.43
2023-01-29T14:06:52.270Z,27.77
2023-01-29T14:10:06.370Z,28.23
2023-01-29T14:12:50.079Z,29.70
2023-01-29T14:15:45.624Z,27.03
2023-01-29T14:18:21.122Z,28.23
2023-01-29T14:21:22.349Z,30.03
2023-01-29T14:23:57.833Z,31.00
2023-01-29T14:26:31.821Z,32.87
2023-01-29T14:29:09.129Z,35.60
2023-01-29T14:31:50.115Z,29.80
2023-01-29T14:34:28.254Z,38.83
2023-01-29T14:37:03.740Z,33.00
2023-01-29T14:39:39.733Z,32.27
2023-01-29T14:42:22.763Z,33.83
2023-01-29T14:45:09.058Z,33.23
2023-01-29T14:48:13.179Z,31.13
2023-01-29T14:50:45.370Z,29.63
2023-01-29T14:53:21.899Z,28.47
2023-01-29T14:55:55.911Z,28.70
2023-01-29T14:58:36.438Z,33.10
2023-01-29T15:01:09.676Z,34.77
2023-01-29T15:03:45.416Z,30.63
2023-01-29T15:06:21.423Z,31.57
2023-01-29T15:08:57.818Z,28.93
2023-01-29T15:11:39.284Z,30.50
2023-01-29T15:14:34.488Z,27.87
2023-01-29T15:17:17.517Z,27.63
2023-01-29T15:19:48.840Z,26.03
2023-01-29T15:22:20.144Z,28.83
2023-01-29T15:25:04.555Z,27.80
2023-01-29T15:27:34.380Z,26.40
2023-01-29T15:30:08.311Z,25.77
2023-01-29T15:32:41.552Z,26.63
2023-01-29T15:35:12.563Z,27.00
2023-01-29T15:37:43.866Z,25.77
2023-01-29T15:40:18.242Z,24.37
2023-01-29T15:42:48.944Z,26.50
2023-01-29T15:45:28.534Z,26.13
2023-01-29T15:48:02.268Z,27.20
2023-01-29T15:50:32.059Z,27.23
2023-01-29T15:53:05.894Z,28.60
2023-01-29T15:55:37.915Z,28.57
2023-01-29T15:58:08.811Z,26.70
2023-01-29T16:00:38.963Z,31.57
2023-01-29T16:03:17.462Z,34.50
2023-01-29T16:05:46.327Z,41.20
2023-01-29T16:08:16.607Z,30.83
2023-01-29T16:10:48.317Z,28.73
2023-01-29T16:13:22.288Z,28.60
2023-01-29T16:15:58.987Z,27.07
2023-01-29T16:18:32.998Z,27.77
2023-01-29T16:21:05.723Z,29.27
2023-01-29T16:23:42.539Z,28.73
2023-01-29T16:26:18.428Z,30.70
2023-01-29T16:28:48.371Z,28.77
2023-01-29T16:31:25.038Z,28.17
2023-01-29T16:34:00.017Z,27.03
2023-01-29T16:36:30.128Z,27.97
2023-01-29T16:39:04.070Z,26.90
2023-01-29T16:41:37.911Z,26.80
2023-01-29T16:44:39.354Z,28.27
2023-01-29T16:47:14.223Z,27.73
2023-01-29T16:49:50.787Z,27.63
2023-01-29T16:52:23.699Z,27.20
2023-01-29T16:54:54.155Z,29.47
2023-01-29T16:57:28.325Z,27.60
2023-01-29T17:00:17.263Z,27.17
2023-01-29T17:02:46.559Z,26.23
2023-01-29T17:05:25.470Z,28.13
2023-01-29T17:07:58.007Z,25.93
2023-01-29T17:10:29.679Z,25.43
2023-01-29T17:13:05.086Z,25.77
2023-01-29T17:15:46.500Z,24.80
2023-01-29T17:18:26.605Z,25.63
2023-01-29T17:20:55.823Z,23.13
2023-01-29T17:23:37.029Z,26.27
2023-01-29T17:26:07.994Z,27.23
2023-01-29T17:28:39.046Z,29.63
2023-01-29T17:31:11.204Z,34.07
2023-01-29T17:33:45.111Z,29.50
2023-01-29T17:36:17.869Z,28.40
2023-01-29T17:38:49.732Z,32.07
2023-01-29T17:41:25.730Z,32.57
2023-01-29T17:43:56.633Z,30.67
2023-01-29T17:46:25.848Z,28.87
2023-01-29T17:48:54.720Z,26.33
2023-01-29T17:51:25.021Z,27.63
2023-01-29T17:53:59.969Z,27.60
2023-01-29T17:56:30.638Z,27.97
2023-01-29T17:59:07.571Z,30.73
2023-01-29T18:01:41.479Z,30.27
2023-01-29T18:04:11.881Z,27.20
2023-01-29T18:06:50.297Z,29.33
2023-01-29T18:09:22.367Z,28.97
2023-01-29T18:11:53.270Z,27.43
2023-01-29T18:14:24.092Z,27.97
2023-01-29T18:16:53.202Z,27.23
2023-01-29T18:19:27.685Z,25.13
2023-01-29T18:21:59.935Z,27.20
2023-01-29T18:24:30.240Z,27.10
2023-01-29T18:26:59.598Z,29.47
2023-01-29T18:29:30.567Z,28.17
2023-01-29T18:32:02.328Z,26.47
2023-01-29T18:34:31.222Z,25.73
2023-01-29T18:37:00.648Z,25.87
2023-01-29T18:39:30.492Z,26.20
2023-01-29T18:41:59.830Z,25.40
2023-01-29T18:44:32.560Z,25.17
2023-01-29T18:47:01.632Z,25.07
2023-01-29T18:49:31.684Z,25.90
2023-01-29T18:52:02.705Z,26.63
2023-01-29T18:54:36.899Z,26.90
2023-01-29T18:57:14.037Z,26.47
2023-01-29T18:59:51.381Z,26.33
2023-01-29T19:02:21.148Z,25.60
2023-01-29T19:04:53.282Z,34.97
2023-01-29T19:07:22.540Z,28.87
2023-01-29T19:09:51.570Z,27.63
2023-01-29T19:12:20.614Z,27.83
2023-01-29T19:14:52.128Z,29.10
2023-01-29T19:17:23.018Z,28.83
2023-01-29T19:19:52.284Z,26.93
2023-01-29T19:22:21.262Z,29.83
2023-01-29T19:24:52.881Z,28.43
2023-01-29T19:27:22.278Z,30.07
2023-01-29T19:29:53.310Z,28.87
2023-01-29T19:32:22.945Z,29.77
2023-01-29T19:34:52.904Z,27.87
2023-01-29T19:37:25.719Z,28.80
2023-01-29T19:39:54.871Z,28.70
2023-01-29T19:42:24.375Z,27.80
2023-01-29T19:44:56.914Z,28.07
2023-01-29T19:47:25.841Z,29.47
2023-01-29T19:49:54.657Z,29.17
2023-01-29T19:52:49.856Z,27.03
2023-01-29T19:55:21.657Z,25.73
2023-01-29T19:57:54.474Z,26.50
2023-01-29T20:00:30.388Z,29.27
2023-01-29T20:03:01.949Z,28.37
2023-01-29T20:05:38.110Z,26.30
2023-01-29T20:08:08.224Z,26.17
2023-01-29T20:10:42.189Z,27.00
2023-01-29T20:13:16.631Z,25.13
2023-01-29T20:15:53.125Z,28.50
2023-01-29T20:18:23.196Z,27.00
2023-01-29T20:20:56.801Z,26.80
2023-01-29T20:23:37.157Z,27.23
2023-01-29T20:26:10.112Z,30.73
2023-01-29T20:28:43.677Z,35.33
2023-01-29T20:31:14.019Z,41.20
2023-01-29T20:33:43.726Z,31.30
2023-01-29T20:36:18.666Z,34.50
2023-01-29T20:38:48.665Z,27.07
2023-01-29T20:41:19.502Z,29.13
2023-01-29T20:43:50.737Z,29.37
2023-01-29T20:46:25.506Z,26.17
2023-01-29T20:48:55.918Z,24.87
2023-01-29T20:51:27.084Z,25.60
2023-01-29T20:53:58.889Z,26.00
2023-01-29T20:56:35.632Z,25.73
2023-01-29T20:59:11.628Z,27.67
2023-01-29T21:01:42.287Z,24.93
2023-01-29T21:04:11.812Z,25.60
2023-01-29T21:06:45.733Z,25.77
2023-01-29T21:09:15.302Z,25.13
2023-01-29T21:11:47.624Z,25.00
2023-01-29T21:14:16.687Z,24.57
2023-01-29T21:16:47.388Z,27.83
2023-01-29T21:19:18.034Z,28.33
2023-01-29T21:21:47.392Z,26.50
2023-01-29T21:24:18.970Z,26.60
2023-01-29T21:26:48.265Z,26.83
2023-01-29T21:29:18.072Z,30.83
2023-01-29T21:31:48.887Z,25.87
2023-01-29T21:34:19.721Z,27.13
2023-01-29T21:36:49.460Z,24.97
2023-01-29T21:39:29.160Z,26.70
2023-01-29T21:42:15.542Z,26.27
2023-01-29T21:44:44.776Z,26.60
2023-01-29T21:47:15.798Z,27.30
2023-01-29T21:49:48.052Z,25.07
2023-01-29T21:52:17.476Z,25.70
2023-01-29T21:54:49.406Z,24.73
2023-01-29T21:57:18.808Z,24.30
2023-01-29T21:59:52.959Z,25.83
2023-01-29T22:02:27.985Z,24.83
2023-01-29T22:05:16.492Z,25.40
2023-01-29T22:07:49.125Z,25.63
2023-01-29T22:10:19.772Z,24.47
2023-01-29T22:12:49.242Z,24.63
2023-01-29T22:15:18.337Z,25.80
2023-01-29T22:17:48.499Z,25.00
2023-01-29T22:20:25.658Z,24.40
2023-01-29T22:22:54.709Z,25.93
2023-01-29T22:25:24.043Z,24.80
2023-01-29T22:27:52.807Z,24.57
2023-01-29T22:30:23.609Z,23.97
2023-01-29T22:32:54.046Z,25.60
2023-01-29T22:35:23.240Z,25.33
2023-01-29T22:37:54.955Z,26.93
2023-01-29T22:40:25.449Z,25.50
2023-01-29T22:42:54.404Z,26.47
2023-01-29T22:45:24.600Z,26.23
2023-01-29T22:47:54.800Z,26.60
2023-01-29T22:50:23.817Z,26.03
2023-01-29T22:52:54.295Z,26.93
2023-01-29T22:55:23.980Z,27.00
2023-01-29T22:57:53.573Z,27.40
2023-01-29T23:00:24.766Z,26.70
2023-01-29T23:02:58.034Z,27.37
2023-01-29T23:05:29.633Z,26.40
2023-01-29T23:07:58.513Z,27.27
2023-01-29T23:10:27.304Z,29.37
2023-01-29T23:12:56.188Z,28.83
2023-01-29T23:15:25.447Z,29.43
2023-01-29T23:17:55.804Z,28.40
2023-01-29T23:20:27.401Z,29.33
2023-01-29T23:22:56.594Z,28.43
2023-01-29T23:25:46.098Z,29.43
2023-01-29T23:28:14.074Z,27.60
2023-01-29T23:30:43.381Z,30.47
2023-01-29T23:33:13.752Z,30.00
2023-01-29T23:35:42.444Z,28.33
2023-01-29T23:38:11.177Z,29.70
2023-01-29T23:40:39.889Z,33.57
2023-01-29T23:43:08.649Z,28.67
2023-01-29T23:45:37.727Z,29.13
2023-01-29T23:48:07.793Z,28.40
2023-01-29T23:50:38.784Z,28.53
2023-01-29T23:53:09.781Z,28.33
2023-01-29T23:55:38.323Z,30.70
2023-01-29T23:58:07.357Z,30.13
